Terminal Aerodrome Forecast
Issued by NWS

Home | Current Version | Previous Version | Text Only | Print | Product List | Glossary On
Versions: 1 2 3 4 5 6 7 8 9 10 11 12 13 14 15
000
FTUS45 KSLC 050548 AAA
TAFPVU
TAF AMD
KPVU 050548Z 0506/0606 VRB04KT P6SM OVC080
     FM050900 14008KT P6SM VCSH SCT025 BKN050
     FM051200 31010KT 3SM -SHSN BR SCT015 OVC025
     FM051400 32013KT 1SM -SN BR SCT005 OVC015
     FM051600 32010KT P6SM VCSH SCT020 BKN040
     FM051800 32008KT P6SM SCT060
     FM060300 VRB04KT P6SM SCT060
      AMD LTD TO CLD VIS AND WIND=

USA.gov is the U.S. government's official web portal to all federal, state and local government web resources and services.